CMA CGM Volga — 5BJR2 — position and weather

sailwx.info

Track history (hours):
 
Tides and Currents Weather Stations Pressure Air Temp Water Temp Dewpoint Dewpoint Depression Visibility Wind Speed Wind Dir Waves Ship Positions

CMA CGM Volga

Last reported at 2015-Jan-28 12:29 UTC. Time now 2015-Jan-29 20:27 UTC.
Position N 59°58' E 027°02'.

Length 184 m; draft 9.7 m.

Type: Ship (hazmat cat A). MMSI: 212456000.

Date/timePositionNaut miles runAvg speedWind from/ knotsBaromVisibWave heightAir tempDewpointWater temp
2015-Jan-28 12:29N 59°58' E 027°02'1717.9
2015-Jan-28 11:33N 59°58' E 026°29'5518.5
2015-Jan-28 08:33N 59°45' E 024°41'3818.4
2015-Jan-28 06:30N 59°34' E 023°29'31317.5
2015-Jan-27 12:33N 54°53' E 019°16'1414.5
2015-Jan-27 11:33N 54°39' E 019°09'1414.0
2015-Jan-27 10:34N 54°26' E 018°59'9 9.3
2015-Jan-27 09:33N 54°24' E 018°43'0 0.4
2015-Jan-27 08:31N 54°23' E 018°43'0 0.0
2015-Jan-27 07:31N 54°23' E 018°43'0 0.0
2015-Jan-27 06:28N 54°23' E 018°43'0 0.0
2015-Jan-27 05:31N 54°23' E 018°43'0 0.0
2015-Jan-27 04:28N 54°23' E 018°43'0 0.0
2015-Jan-27 03:28N 54°23' E 018°43'0 0.0
2015-Jan-27 02:28N 54°23' E 018°43'0 0.0
2015-Jan-27 01:29N 54°23' E 018°43'0 0.0
2015-Jan-27 00:32N 54°23' E 018°43'0 0.0
2015-Jan-26 23:29N 54°23' E 018°43'0 0.0
2015-Jan-26 22:32N 54°23' E 018°43'0 0.0
2015-Jan-26 21:32N 54°23' E 018°43'0 0.0
2015-Jan-26 20:33N 54°23' E 018°43'0 0.0
2015-Jan-26 19:33N 54°23' E 018°43'0 0.0
2015-Jan-26 18:33N 54°23' E 018°43'0 0.0
2015-Jan-26 17:33N 54°23' E 018°43'0 0.0
2015-Jan-26 16:33N 54°23' E 018°43'0 0.0
2015-Jan-26 15:33N 54°23' E 018°43'0 0.0
2015-Jan-26 14:33N 54°23' E 018°43'0 0.0
2015-Jan-26 13:33N 54°23' E 018°43'0 0.0
2015-Jan-26 12:33N 54°23' E 018°43'0 0.0
2015-Jan-26 11:33N 54°23' E 018°43'2 2.3
2015-Jan-26 10:33N 54°25' E 018°46'3 3.1
2015-Jan-26 09:33N 54°26' E 018°51'8 7.5
2015-Jan-26 08:33N 54°31' E 018°60'1110.8
2015-Jan-26 07:33N 54°42' E 019°03'1313.1
2015-Jan-26 06:33N 54°54' E 019°10'1715.6
2015-Jan-26 05:30N 55°10' E 019°19'30415.9
2015-Jan-25 10:24N 59°41' E 023°35'1415.8
2015-Jan-25 09:31N 59°43' E 024°01'1616.0
2015-Jan-25 08:32N 59°48' E 024°32'5516.2
2015-Jan-25 05:07N 59°60' E 026°19'916.2
2015-Jan-25 04:33N 60°01' E 026°38'105 2.8
2015-Jan-23 15:22N 59°54' E 030°07'8514.0
2015-Jan-23 09:21N 60°02' E 027°19'1518.3
2015-Jan-23 08:33N 59°59' E 026°50'5 4.7
2015-Jan-23 07:34N 60°01' E 026°42'1918.3
2015-Jan-23 06:32N 60°04' E 027°19'17 0.7
2015-Jan-22 06:33N 59°59' E 026°46'6017.9
2015-Jan-22 03:13N 59°46' E 024°50'1218.0
2015-Jan-22 02:33N 59°44' E 024°27'1918.2
2015-Jan-22 01:31N 59°38' E 023°51'32116.9
2015-Jan-21 06:29N 54°53' E 019°16'1313.9
2015-Jan-21 05:33N 54°41' E 019°09'1413.9
2015-Jan-21 04:34N 54°28' E 019°00'10 9.8
2015-Jan-21 03:33N 54°24' E 018°45'1 1.3
2015-Jan-21 02:31N 54°23' E 018°43'0 0.0
2015-Jan-21 01:33N 54°23' E 018°43'0 0.0
2015-Jan-21 00:33N 54°23' E 018°43'0 0.0
2015-Jan-20 23:32N 54°23' E 018°43'0 0.0
2015-Jan-20 22:32N 54°23' E 018°43'0 0.0
2015-Jan-20 21:32N 54°23' E 018°43'0 0.0
2015-Jan-20 20:32N 54°23' E 018°43'0 0.0
2015-Jan-20 19:32N 54°23' E 018°43'0 0.0
2015-Jan-20 18:32N 54°23' E 018°43'0 0.0
2015-Jan-20 17:32N 54°23' E 018°43'0 0.0
2015-Jan-20 16:32N 54°23' E 018°43'0 0.0
2015-Jan-20 15:32N 54°23' E 018°43'0 0.0
2015-Jan-20 14:32N 54°23' E 018°43'0 0.0
2015-Jan-20 13:32N 54°23' E 018°43'0 0.2
2015-Jan-20 12:34N 54°23' E 018°43'9 9.5
2015-Jan-20 11:33N 54°28' E 018°57'1212.0
2015-Jan-20 10:33N 54°40' E 019°03'1414.0
2015-Jan-20 09:34N 54°52' E 018°52'1413.5
2015-Jan-20 08:34N 54°57' E 018°30'1313.1
2015-Jan-20 07:33N 54°59' E 018°07'13513.2
2015-Jan-19 21:17N 54°37' E 014°15'1114.4
2015-Jan-19 20:33N 54°41' E 013°58'1414.5
2015-Jan-19 19:33N 54°45' E 013°34'1313.4
2015-Jan-19 18:33N 54°46' E 013°11'1313.2
2015-Jan-19 17:33N 54°46' E 012°48'1313.2
2015-Jan-19 16:33N 54°38' E 012°29'1212.2
2015-Jan-19 15:33N 54°30' E 012°15'1111.0
2015-Jan-19 14:33N 54°25' E 011°57'1212.4
2015-Jan-19 13:33N 54°28' E 011°37'1414.5
2015-Jan-19 12:33N 54°34' E 011°14'1211.8
2015-Jan-19 11:33N 54°35' E 010°54'29 9.7
2015-Jan-19 08:33N 54°22' E 010°08'3 3.4
2015-Jan-19 07:33N 54°22' E 010°03'6 5.5
2015-Jan-19 06:33N 54°21' E 009°53'6 6.4
2015-Jan-19 05:33N 54°19' E 009°43'5 5.1
2015-Jan-19 04:33N 54°15' E 009°37'5 4.5
2015-Jan-19 03:33N 54°12' E 009°32'7 6.5
2015-Jan-19 02:25N 54°09' E 009°21'6 6.4
2015-Jan-19 01:30N 54°03' E 009°18'2 1.7
2015-Jan-19 00:32N 54°01' E 009°18'6 5.7
2015-Jan-18 23:33N 53°57' E 009°13'4 4.1
2015-Jan-18 22:33N 53°54' E 009°09'1 0.7
2015-Jan-18 21:33N 53°53' E 009°08'2 1.9
2015-Jan-18 20:26N 53°53' E 009°12'0 0.1
2015-Jan-18 19:32N 53°53' E 009°12'0 0.2
2015-Jan-18 18:23N 53°53' E 009°12'0 0.0
2015-Jan-18 17:32N 53°53' E 009°12'0 0.0
2015-Jan-18 16:29N 53°53' E 009°12'0 0.0
2015-Jan-18 15:32N 53°53' E 009°12'0 0.0
2015-Jan-18 14:11N 53°53' E 009°12'0 0.0
2015-Jan-18 13:33N 53°53' E 009°12'8 7.5
2015-Jan-18 12:33N 53°49' E 009°22'  
Track history (hours):
 
Tides and Currents Weather Stations Pressure Air Temp Water Temp Dewpoint Dewpoint Depression Visibility Wind Speed Wind Dir Waves Ship Positions

CMA CGM Volga

Last reported at 2015-Jan-28 12:29 UTC. Time now 2015-Jan-29 20:27 UTC.
Position N 59°58' E 027°02'.

Length 184 m; draft 9.7 m.

Type: Ship (hazmat cat A). MMSI: 212456000.

Date/timePositionNaut miles runAvg speedWind from/ knotsBaromVisibWave heightAir tempDewpointWater temp
2015-Jan-28 12:29N 59°58' E 027°02'1717.9
2015-Jan-28 11:33N 59°58' E 026°29'5518.5
2015-Jan-28 08:33N 59°45' E 024°41'3818.4
2015-Jan-28 06:30N 59°34' E 023°29'31317.5
2015-Jan-27 12:33N 54°53' E 019°16'1414.5
2015-Jan-27 11:33N 54°39' E 019°09'1414.0
2015-Jan-27 10:34N 54°26' E 018°59'9 9.3
2015-Jan-27 09:33N 54°24' E 018°43'0 0.4
2015-Jan-27 08:31N 54°23' E 018°43'0 0.0
2015-Jan-27 07:31N 54°23' E 018°43'0 0.0
2015-Jan-27 06:28N 54°23' E 018°43'0 0.0
2015-Jan-27 05:31N 54°23' E 018°43'0 0.0
2015-Jan-27 04:28N 54°23' E 018°43'0 0.0
2015-Jan-27 03:28N 54°23' E 018°43'0 0.0
2015-Jan-27 02:28N 54°23' E 018°43'0 0.0
2015-Jan-27 01:29N 54°23' E 018°43'0 0.0
2015-Jan-27 00:32N 54°23' E 018°43'0 0.0
2015-Jan-26 23:29N 54°23' E 018°43'0 0.0
2015-Jan-26 22:32N 54°23' E 018°43'0 0.0
2015-Jan-26 21:32N 54°23' E 018°43'0 0.0
2015-Jan-26 20:33N 54°23' E 018°43'0 0.0
2015-Jan-26 19:33N 54°23' E 018°43'0 0.0
2015-Jan-26 18:33N 54°23' E 018°43'0 0.0
2015-Jan-26 17:33N 54°23' E 018°43'0 0.0
2015-Jan-26 16:33N 54°23' E 018°43'0 0.0
2015-Jan-26 15:33N 54°23' E 018°43'0 0.0
2015-Jan-26 14:33N 54°23' E 018°43'0 0.0
2015-Jan-26 13:33N 54°23' E 018°43'0 0.0
2015-Jan-26 12:33N 54°23' E 018°43'0 0.0
2015-Jan-26 11:33N 54°23' E 018°43'2 2.3
2015-Jan-26 10:33N 54°25' E 018°46'3 3.1
2015-Jan-26 09:33N 54°26' E 018°51'8 7.5
2015-Jan-26 08:33N 54°31' E 018°60'1110.8
2015-Jan-26 07:33N 54°42' E 019°03'1313.1
2015-Jan-26 06:33N 54°54' E 019°10'1715.6
2015-Jan-26 05:30N 55°10' E 019°19'30415.9
2015-Jan-25 10:24N 59°41' E 023°35'1415.8
2015-Jan-25 09:31N 59°43' E 024°01'1616.0
2015-Jan-25 08:32N 59°48' E 024°32'5516.2
2015-Jan-25 05:07N 59°60' E 026°19'916.2
2015-Jan-25 04:33N 60°01' E 026°38'105 2.8
2015-Jan-23 15:22N 59°54' E 030°07'8514.0
2015-Jan-23 09:21N 60°02' E 027°19'1518.3
2015-Jan-23 08:33N 59°59' E 026°50'5 4.7
2015-Jan-23 07:34N 60°01' E 026°42'1918.3
2015-Jan-23 06:32N 60°04' E 027°19'17 0.7
2015-Jan-22 06:33N 59°59' E 026°46'6017.9
2015-Jan-22 03:13N 59°46' E 024°50'1218.0
2015-Jan-22 02:33N 59°44' E 024°27'1918.2
2015-Jan-22 01:31N 59°38' E 023°51'32116.9
2015-Jan-21 06:29N 54°53' E 019°16'1313.9
2015-Jan-21 05:33N 54°41' E 019°09'1413.9
2015-Jan-21 04:34N 54°28' E 019°00'10 9.8
2015-Jan-21 03:33N 54°24' E 018°45'1 1.3
2015-Jan-21 02:31N 54°23' E 018°43'0 0.0
2015-Jan-21 01:33N 54°23' E 018°43'0 0.0
2015-Jan-21 00:33N 54°23' E 018°43'0 0.0
2015-Jan-20 23:32N 54°23' E 018°43'0 0.0
2015-Jan-20 22:32N 54°23' E 018°43'0 0.0
2015-Jan-20 21:32N 54°23' E 018°43'0 0.0
2015-Jan-20 20:32N 54°23' E 018°43'0 0.0
2015-Jan-20 19:32N 54°23' E 018°43'0 0.0
2015-Jan-20 18:32N 54°23' E 018°43'0 0.0
2015-Jan-20 17:32N 54°23' E 018°43'0 0.0
2015-Jan-20 16:32N 54°23' E 018°43'0 0.0
2015-Jan-20 15:32N 54°23' E 018°43'0 0.0
2015-Jan-20 14:32N 54°23' E 018°43'0 0.0
2015-Jan-20 13:32N 54°23' E 018°43'0 0.2
2015-Jan-20 12:34N 54°23' E 018°43'9 9.5
2015-Jan-20 11:33N 54°28' E 018°57'1212.0
2015-Jan-20 10:33N 54°40' E 019°03'1414.0
2015-Jan-20 09:34N 54°52' E 018°52'1413.5
2015-Jan-20 08:34N 54°57' E 018°30'1313.1
2015-Jan-20 07:33N 54°59' E 018°07'13513.2
2015-Jan-19 21:17N 54°37' E 014°15'1114.4
2015-Jan-19 20:33N 54°41' E 013°58'1414.5
2015-Jan-19 19:33N 54°45' E 013°34'1313.4
2015-Jan-19 18:33N 54°46' E 013°11'1313.2
2015-Jan-19 17:33N 54°46' E 012°48'1313.2
2015-Jan-19 16:33N 54°38' E 012°29'1212.2
2015-Jan-19 15:33N 54°30' E 012°15'1111.0
2015-Jan-19 14:33N 54°25' E 011°57'1212.4
2015-Jan-19 13:33N 54°28' E 011°37'1414.5
2015-Jan-19 12:33N 54°34' E 011°14'1211.8
2015-Jan-19 11:33N 54°35' E 010°54'29 9.7
2015-Jan-19 08:33N 54°22' E 010°08'3 3.4
2015-Jan-19 07:33N 54°22' E 010°03'6 5.5
2015-Jan-19 06:33N 54°21' E 009°53'6 6.4
2015-Jan-19 05:33N 54°19' E 009°43'5 5.1
2015-Jan-19 04:33N 54°15' E 009°37'5 4.5
2015-Jan-19 03:33N 54°12' E 009°32'7 6.5
2015-Jan-19 02:25N 54°09' E 009°21'6 6.4
2015-Jan-19 01:30N 54°03' E 009°18'2 1.7
2015-Jan-19 00:32N 54°01' E 009°18'6 5.7
2015-Jan-18 23:33N 53°57' E 009°13'4 4.1
2015-Jan-18 22:33N 53°54' E 009°09'1 0.7
2015-Jan-18 21:33N 53°53' E 009°08'2 1.9
2015-Jan-18 20:26N 53°53' E 009°12'0 0.1
2015-Jan-18 19:32N 53°53' E 009°12'0 0.2
2015-Jan-18 18:23N 53°53' E 009°12'0 0.0
2015-Jan-18 17:32N 53°53' E 009°12'0 0.0
2015-Jan-18 16:29N 53°53' E 009°12'0 0.0
2015-Jan-18 15:32N 53°53' E 009°12'0 0.0
2015-Jan-18 14:11N 53°53' E 009°12'0 0.0
2015-Jan-18 13:33N 53°53' E 009°12'8 7.5
2015-Jan-18 12:33N 53°49' E 009°22'  

Dump ship's entire track history